The Official Home Page Of The Professional Rodeo Cowboys Association PRCA RAM WORLD STANDINGS
ProRodeoTv.Com
Red

PRCA Stock Statistics

SEARCH BY:
Stock Rodeo Contestant Stock Contractor

Ross Freeman

EVENT:
Unofficial results reflect placement at time of Web posting and can change.

SEASON BREAKDOWN

Season Attempts Qual Rides Re-rides Ride %
2018 54 11 0 20.37 %
2017 11 4 0 36.36 %
Totals 65 15 0 0.00 %

RODEO DETAIL

Date Location Rodeo SC Brand Ride Comments Stock Score Contestant Score
7/15/2018 Laramie, WY Laramie Jubilee Days JK 21 0.00 22.00 / 21.50 0.00 / 0.00
7/14/2018 Gunnison, CO Cattlemen s Days SH 8 0.00 22.00 / 21.00 0.00 / 0.00
7/13/2018 Casper, WY Central Wyoming Fair & PRCA Rodeo LH 325 0.00 20.50 / 21.00 0.00 / 0.00
7/12/2018 Laramie, WY Laramie Jubilee Days Xtreme Bulls JK 1000Z 0.00 21.00 / 21.00 0.00 / 0.00
7/7/2018 Oakley City, UT Oakley Independence Day Rodeo BT 054 85.00 21.00 / 20.50 21.00 / 22.50
7/3/2018 Livingston, MT Livingston Roundup KC 06 85.50 21.50 / 21.00 21.50 / 21.50
7/2/2018 Mandan, ND Mandan Rodeo Days DK 200 0.00 22.00 / 22.00 0.00 / 0.00
6/30/2018 Pecos, TX West Of The Pecos Rodeo PC 5 0.00 19.00 / 19.00 0.00 / 0.00
6/29/2018 Springdale, AR Rodeo of The Ozarks SS 15A 0.00 21.50 / 21.00 0.00 / 0.00
6/28/2018 Greeley, CO Greeley Stampede BU R82 0.00 21.50 / 22.00 0.00 / 0.00
6/23/2018 Pleasant Grove, UT Strawberry Days Rodeo BT 054 0.00 22.00 / 22.50 0.00 / 0.00
6/22/2018 Santa Fe, NM Rodeo de Sante Fe HV 300 86.00 20.50 / 21.50 21.50 / 22.50
6/21/2018 Big Spring, TX Big Spring Cowboy Reunion & Rodeo CR 1352 0.00 19.50 / 20.50 0.00 / 0.00
6/16/2018 Reno, NV Reno Rodeo FU W02/4 66.00 17.00 / 16.00 17.00 / 16.00
6/13/2018 Silver City, NM Wild, Wild West ProRodeo HL 4 0.00 21.50 / 22.00 0.00 / 0.00
6/9/2018 Gladewater, TX Gladewater Round-Up Rodeo RG 417 0.00 21.50 / 21.00 0.00 / 0.00
6/8/2018 Crosby, TX Crosby Fair & Rodeo KL -7 0.00 22.50 / 22.00 0.00 / 0.00
6/7/2018 Coleman, TX Coleman PRCA Rodeo SS J11 82.00 20.00 / 20.00 21.00 / 21.00
6/6/2018 Gladewater, TX Gladewater Round-Up Xtreme Bulls RG 31 0.00 22.50 / 23.00 0.00 / 0.00
6/2/2018 Mesquite, TX Mesquite Championship Rodeo UP 6 0.00 20.00 / 19.00 0.00 / 0.00
6/1/2018 Hugo, OK Hugo PRCA Rodeo RH 313 0.00 20.00 / 18.50 0.00 / 0.00
5/30/2018 Fort Smith, AR Old Fort Days Rodeo AN F12 69.00 17.00 / 17.00 18.00 / 17.00
5/12/2018 Mineral Wells, TX Mineral Wells Rodeo RG 935 0.00 21.50 / 20.50 0.00 / 0.00
5/11/2018 Crockett, TX Crockett Lions Club PRCA Rodeo AN 06 0.00 21.00 / 22.00 0.00 / 0.00
5/4/2018 Carthage, TX Panola County Cattlemen s Rodeo HL -50 0.00 21.50 / 22.50 0.00 / 0.00
Page of 3
Per Page
 
 
 
PRCA National Sponsors
MGM Grand Polaris Ranger
Copyright © 2018 Professional Rodeo Cowboys Association. All rights reserved. No portion of ProRodeo.com may be duplicated, redistributed or manipulated in any form. By accessing any information beyond this page, you agree to abide by the Terms of Use.
PRCA Wrangler National Finals Rodeo Wrangler ProRodeo Tour Finale Presented by Justin Boots Xtreme Bulls RAM National Circuit Finals Rodeo ProRodeo Gear ProRodeo Tour